Terminal Aerodrome Forecast
Issued by NWS

Home | Current Version | Previous Version | Graphics & Text | Print | Product List | Glossary On
Versions: 1 2 3 4 5 6 7 8 9 10 11 12 13 14
000
FTUS43 KMPX 280013 CCA
TAFRNH
TAF COR
KRNH 280013Z 2800/2824 02004KT P6SM OVC007
     FM280800 06003KT 2SM BR OVC005
     FM281500 05006KT P6SM OVC009
     FM281800 05007KT P6SM BKN018=

USA.gov is the U.S. government's official web portal to all federal, state and local government web resources and services.